Time;durP1;ratioP1;P1;durP2;ratioP2;P2;SDS_P1;SDS_P2;PMS_P1;PMS_P2;Temp;Humidity;BMP_temperature;BMP_pressure;BME280_temperature;BME280_humidity;BME280_pressure;Samples;Min_cycle;Max_cycle;Signal;HPM_P1;HPM_P2
2023/02/01 00:02:11;;;;;;;27.73;4.30;;;5.40;99.90;;;;;;5027149;28;20038;-73
2023/02/01 00:04:37;;;;;;;24.23;3.67;;;5.50;99.90;;;;;;5010845;28;20033;-74
2023/02/01 00:07:03;;;;;;;21.58;4.65;;;5.50;99.90;;;;;;5007984;28;20168;-75
2023/02/01 00:09:28;;;;;;;24.70;4.28;;;5.50;99.90;;;;;;5038018;28;20021;-75
2023/02/01 00:11:54;;;;;;;33.95;5.10;;;5.40;99.90;;;;;;5026337;28;20029;-76
2023/02/01 00:14:20;;;;;;;23.08;3.92;;;5.40;99.90;;;;;;5008683;28;20030;-74
2023/02/01 00:16:46;;;;;;;21.40;3.95;;;5.40;99.90;;;;;;5028230;28;20032;-75
2023/02/01 00:19:14;;;;;;;27.10;4.60;;;5.40;99.90;;;;;;5008782;28;20037;-75
2023/02/01 00:21:40;;;;;;;22.92;3.78;;;5.40;99.90;;;;;;5041196;28;20125;-75
2023/02/01 00:24:06;;;;;;;25.17;4.38;;;5.40;99.90;;;;;;5023416;28;20026;-75
2023/02/01 00:26:38;;;;;;;29.48;3.88;;;5.50;99.90;;;;;;4991877;28;20033;-78
2023/02/01 00:29:06;;;;;;;24.52;4.40;;;5.50;99.90;;;;;;5025584;28;20105;-75
2023/02/01 00:31:32;;;;;;;29.00;4.35;;;5.50;99.90;;;;;;5043865;28;20080;-75
2023/02/01 00:33:58;;;;;;;26.98;5.13;;;5.50;99.90;;;;;;5025190;28;20449;-75
2023/02/01 00:36:24;;;;;;;21.80;4.22;;;5.50;99.90;;;;;;5042504;28;20037;-76
2023/02/01 00:38:50;;;;;;;29.00;5.20;;;5.50;99.90;;;;;;5006626;28;20029;-75
2023/02/01 00:41:20;;;;;;;32.55;4.90;;;5.50;99.90;;;;;;5026977;28;20300;-77
2023/02/01 00:43:48;;;;;;;28.13;5.27;;;5.50;99.90;;;;;;5026557;28;20034;-76
2023/02/01 00:46:16;;;;;;;23.42;4.75;;;5.50;99.90;;;;;;5027714;28;20022;-76
2023/02/01 00:48:42;;;;;;;26.88;6.03;;;5.60;99.90;;;;;;5011481;28;20025;-79
2023/02/01 00:51:11;;;;;;;34.33;5.13;;;5.60;99.90;;;;;;5022408;28;20440;-75
2023/02/01 00:53:37;;;;;;;22.33;4.60;;;5.60;99.90;;;;;;5025131;28;20034;-75
2023/02/01 00:56:04;;;;;;;35.58;5.53;;;5.60;99.90;;;;;;5025572;28;20036;-75
2023/02/01 00:58:32;;;;;;;29.30;4.75;;;5.60;99.90;;;;;;5026096;28;20021;-80
2023/02/01 01:01:07;;;;;;;28.25;5.30;;;5.60;99.90;;;;;;5012936;28;20040;-77
2023/02/01 01:03:37;;;;;;;27.80;4.80;;;5.60;99.90;;;;;;5027447;28;20100;-84
2023/02/01 01:06:06;;;;;;;31.23;4.43;;;5.60;99.90;;;;;;5016283;28;20030;-80
2023/02/01 01:08:32;;;;;;;42.95;5.95;;;5.60;99.90;;;;;;5011997;28;21620;-75
2023/02/01 01:10:58;;;;;;;31.83;5.63;;;5.60;99.90;;;;;;5035403;28;20037;-77
2023/02/01 01:13:24;;;;;;;26.55;4.88;;;5.70;99.90;;;;;;5018211;28;20086;-77
2023/02/01 01:15:50;;;;;;;35.88;5.75;;;5.70;99.90;;;;;;5025973;28;20095;-77
2023/02/01 01:18:15;;;;;;;38.90;5.45;;;5.70;99.90;;;;;;5023137;28;20040;-75
2023/02/01 01:20:42;;;;;;;28.58;5.20;;;5.70;99.90;;;;;;5032515;28;20030;-77
2023/02/01 01:23:08;;;;;;;33.75;5.85;;;5.70;99.90;;;;;;5015813;28;20025;-75
2023/02/01 01:25:40;;;;;;;39.58;5.95;;;5.70;99.90;;;;;;5034514;28;20037;-74
2023/02/01 01:28:06;;;;;;;39.13;6.95;;;5.70;99.90;;;;;;5033343;28;20108;-75
2023/02/01 01:30:33;;;;;;;37.22;6.13;;;5.70;99.90;;;;;;5016178;28;20533;-76
2023/02/01 01:32:59;;;;;;;37.75;6.07;;;5.70;99.90;;;;;;5011773;28;20125;-75
2023/02/01 01:35:25;;;;;;;38.35;6.07;;;5.70;99.90;;;;;;5031344;28;20040;-75
2023/02/01 01:37:51;;;;;;;35.83;4.72;;;5.70;99.90;;;;;;5011296;28;20659;-74
2023/02/01 01:40:16;;;;;;;32.22;5.85;;;5.70;99.90;;;;;;5032924;28;20033;-76
2023/02/01 01:42:44;;;;;;;37.95;5.93;;;5.70;99.90;;;;;;5032208;28;20090;-75
2023/02/01 01:45:32;;;;;;;33.10;5.88;;;5.70;99.90;;;;;;5035348;28;20517;-73
2023/02/01 01:48:06;;;;;;;38.80;6.90;;;5.70;99.90;;;;;;5032063;28;20037;-78
2023/02/01 01:50:41;;;;;;;32.75;5.75;;;5.70;99.90;;;;;;5028785;28;20108;-77
2023/02/01 01:53:09;;;;;;;28.13;4.90;;;5.80;99.90;;;;;;5046449;28;20056;-74
2023/02/01 01:55:40;;;;;;;44.58;6.32;;;5.80;99.90;;;;;;5032173;28;20117;-74
2023/02/01 01:58:13;;;;;;;44.10;6.28;;;5.80;99.90;;;;;;5046406;28;20064;-74
2023/02/01 02:00:39;;;;;;;34.15;5.18;;;5.80;99.90;;;;;;5031649;28;20559;-74
2023/02/01 02:03:26;;;;;;;39.20;5.93;;;5.80;99.90;;;;;;5030004;28;20029;-76
2023/02/01 02:05:57;;;;;;;32.65;5.38;;;5.80;99.90;;;;;;5011584;28;20481;-74
2023/02/01 02:08:24;;;;;;;38.30;5.32;;;5.80;99.90;;;;;;5031864;28;20025;-75
2023/02/01 02:11:01;;;;;;;36.47;5.75;;;5.80;99.90;;;;;;5027452;28;20025;-74
2023/02/01 02:13:38;;;;;;;38.33;5.45;;;5.80;99.90;;;;;;5015149;28;20030;-76
2023/02/01 02:16:06;;;;;;;32.17;5.25;;;5.80;99.90;;;;;;5012116;28;20030;-75
2023/02/01 02:19:02;;;;;;;41.58;5.90;;;5.80;99.90;;;;;;5013691;28;20026;-74
2023/02/01 02:22:22;;;;;;;34.03;4.85;;;5.80;99.90;;;;;;4993413;28;20045;-74
2023/02/01 02:25:02;;;;;;;36.85;5.57;;;5.70;99.90;;;;;;4986407;28;20065;-75
2023/02/01 02:28:06;;;;;;;36.42;5.28;;;5.80;99.90;;;;;;5023659;28;20049;-76
2023/02/01 02:31:04;;;;;;;33.33;5.95;;;5.80;99.90;;;;;;5009037;28;20103;-74
2023/02/01 02:33:39;;;;;;;30.65;5.22;;;5.70;99.90;;;;;;5028770;28;20017;-74
2023/02/01 02:36:07;;;;;;;37.85;6.00;;;5.70;99.90;;;;;;5030047;28;20056;-78
2023/02/01 02:38:47;;;;;;;50.05;6.35;;;5.70;99.90;;;;;;5010644;28;20112;-74
2023/02/01 02:48:02;;;;;;;36.67;5.10;;;5.70;99.90;;;;;;5030053;28;20124;-74
2023/02/01 03:04:56;;;;;;;27.63;5.00;;;5.60;99.90;;;;;;5042732;28;20147;-76
2023/02/01 03:07:43;;;;;;;40.83;5.28;;;5.70;99.90;;;;;;5009541;28;20501;-75
2023/02/01 03:10:51;;;;;;;50.38;6.60;;;5.70;99.90;;;;;;5024459;28;20091;-76
2023/02/01 03:13:38;;;;;;;34.40;5.75;;;5.70;99.90;;;;;;4993781;28;20136;-75
2023/02/01 03:16:07;;;;;;;38.60;5.57;;;5.60;99.90;;;;;;5028761;28;20021;-76
2023/02/01 03:18:44;;;;;;;31.50;5.78;;;5.60;99.90;;;;;;5030412;28;20033;-77
2023/02/01 03:21:21;;;;;;;36.70;4.88;;;5.50;99.90;;;;;;5010191;28;20029;-76
2023/02/01 03:23:50;;;;;;;27.73;5.70;;;5.50;99.90;;;;;;5023924;28;20021;-74
2023/02/01 03:26:19;;;;;;;28.27;4.30;;;5.50;99.90;;;;;;5013922;28;20036;-75
2023/02/01 03:28:51;;;;;;;22.88;3.97;;;5.50;99.90;;;;;;5029458;28;20030;-75
2023/02/01 03:31:17;;;;;;;24.15;3.80;;;5.50;99.90;;;;;;5010485;28;20120;-75
2023/02/01 03:33:43;;;;;;;24.08;2.80;;;5.40;99.90;;;;;;5027023;28;20529;-75
2023/02/01 03:36:32;;;;;;;23.25;4.10;;;5.40;99.90;;;;;;5025218;28;20037;-74
2023/02/01 03:39:11;;;;;;;20.88;3.28;;;5.30;99.90;;;;;;5036185;28;20117;-78
2023/02/01 03:41:37;;;;;;;17.45;3.15;;;5.30;99.90;;;;;;5024347;28;23923;-76
2023/02/01 03:44:27;;;;;;;24.75;3.30;;;5.30;99.90;;;;;;5011594;28;20552;-75
2023/02/01 03:46:58;;;;;;;18.27;2.83;;;5.20;99.90;;;;;;5040999;28;20527;-75
2023/02/01 03:49:36;;;;;;;16.33;3.47;;;5.20;99.90;;;;;;5030399;28;20045;-75
2023/02/01 03:52:03;;;;;;;19.00;3.42;;;5.10;99.90;;;;;;5027951;28;20026;-74
2023/02/01 03:54:30;;;;;;;21.13;3.40;;;5.10;99.90;;;;;;5028837;28;20461;-74
2023/02/01 03:57:00;;;;;;;20.60;4.28;;;5.10;99.90;;;;;;5031129;28;20123;-75
2023/02/01 03:59:27;;;;;;;21.77;3.23;;;5.10;99.90;;;;;;4995379;28;20047;-75
2023/02/01 04:01:53;;;;;;;26.30;3.70;;;5.10;99.90;;;;;;5012595;28;20034;-77
2023/02/01 04:04:21;;;;;;;22.25;4.38;;;5.10;99.90;;;;;;5012839;28;20033;-74
2023/02/01 04:06:48;;;;;;;18.15;4.00;;;5.10;99.90;;;;;;5023919;28;20405;-75
2023/02/01 04:09:14;;;;;;;14.50;3.08;;;5.20;99.90;;;;;;5024791;28;20017;-79
2023/02/01 04:11:40;;;;;;;18.15;3.92;;;5.20;99.90;;;;;;5024476;28;20187;-75
2023/02/01 04:14:06;;;;;;;28.75;4.47;;;5.20;99.90;;;;;;5027548;28;20128;-74
2023/02/01 04:16:32;;;;;;;30.80;3.90;;;5.20;99.90;;;;;;5024625;28;20398;-75
2023/02/01 04:18:59;;;;;;;26.30;3.90;;;5.20;99.90;;;;;;5029002;28;20041;-76
2023/02/01 04:21:28;;;;;;;19.98;3.63;;;5.20;99.90;;;;;;5009446;28;20037;-77
2023/02/01 04:23:54;;;;;;;24.38;3.70;;;5.20;99.90;;;;;;5027131;28;20054;-78
2023/02/01 04:26:21;;;;;;;18.70;3.17;;;5.20;99.90;;;;;;5009768;28;20485;-74
2023/02/01 04:28:47;;;;;;;27.17;3.42;;;5.20;99.90;;;;;;5023580;28;20026;-76
2023/02/01 04:31:17;;;;;;;23.05;3.13;;;5.20;99.90;;;;;;5024724;28;20029;-79
2023/02/01 04:33:43;;;;;;;21.10;2.80;;;5.20;99.90;;;;;;5027738;28;20036;-76
2023/02/01 04:36:09;;;;;;;19.77;3.40;;;5.20;99.90;;;;;;4993529;28;20029;-75
2023/02/01 04:38:36;;;;;;;29.20;3.92;;;5.20;99.90;;;;;;5023871;28;20036;-75
2023/02/01 04:41:02;;;;;;;21.35;3.58;;;5.20;99.90;;;;;;5029881;28;20041;-77
2023/02/01 04:43:28;;;;;;;18.90;3.08;;;5.10;99.90;;;;;;5026746;28;20021;-76
2023/02/01 04:45:54;;;;;;;23.45;3.40;;;5.10;99.90;;;;;;5009956;28;20032;-76
2023/02/01 04:48:20;;;;;;;17.60;2.90;;;5.10;99.90;;;;;;5010689;28;20734;-75
2023/02/01 04:50:48;;;;;;;17.92;2.63;;;5.00;99.90;;;;;;5027939;28;20037;-76
2023/02/01 04:53:20;;;;;;;19.02;2.95;;;5.00;99.90;;;;;;5043273;28;20145;-77
2023/02/01 04:55:48;;;;;;;13.30;2.60;;;5.00;99.90;;;;;;5026685;28;20257;-76
2023/02/01 04:58:14;;;;;;;17.55;2.75;;;5.00;99.90;;;;;;5027278;28;20025;-76
2023/02/01 05:00:39;;;;;;;14.18;2.90;;;4.80;99.90;;;;;;5027788;28;20489;-76
2023/02/01 05:03:05;;;;;;;11.23;2.45;;;4.80;99.90;;;;;;5010460;28;20132;-75
2023/02/01 05:05:31;;;;;;;7.60;1.40;;;4.80;99.90;;;;;;5026950;28;20033;-75
2023/02/01 05:07:57;;;;;;;5.10;1.23;;;4.80;99.90;;;;;;4995016;28;20034;-77
2023/02/01 05:10:23;;;;;;;9.40;1.40;;;4.60;99.90;;;;;;5012514;28;20095;-75
2023/02/01 05:15:41;;;;;;;7.78;1.30;;;4.50;99.90;;;;;;5006687;28;20042;-76
2023/02/01 05:18:07;;;;;;;4.10;0.80;;;4.30;99.90;;;;;;5031515;28;20025;-74
2023/02/01 05:20:32;;;;;;;4.93;0.90;;;4.20;99.90;;;;;;5025967;28;20033;-76
2023/02/01 05:22:58;;;;;;;2.35;0.70;;;4.10;99.90;;;;;;5027484;28;20041;-75
2023/02/01 05:25:24;;;;;;;7.13;1.05;;;4.10;99.90;;;;;;5023843;28;20745;-75
2023/02/01 05:27:50;;;;;;;2.88;0.70;;;4.00;99.90;;;;;;5026744;28;20029;-75
2023/02/01 05:30:16;;;;;;;3.30;0.70;;;4.00;99.90;;;;;;5025046;28;20040;-76
2023/02/01 05:32:42;;;;;;;2.38;0.55;;;3.90;99.90;;;;;;5006665;28;20029;-77
2023/02/01 05:35:09;;;;;;;3.85;0.65;;;3.90;99.90;;;;;;5007940;28;20028;-76
2023/02/01 05:37:36;;;;;;;6.65;0.90;;;3.90;99.90;;;;;;5011136;28;20097;-77
2023/02/01 05:40:02;;;;;;;8.85;0.90;;;3.80;99.90;;;;;;4999975;28;20033;-75
2023/02/01 05:42:28;;;;;;;1.77;0.40;;;3.70;99.90;;;;;;5023961;28;20049;-75
2023/02/01 05:44:55;;;;;;;3.00;0.77;;;3.70;99.90;;;;;;5026534;28;20024;-74
2023/02/01 05:47:21;;;;;;;4.22;0.73;;;3.60;99.90;;;;;;5006673;28;20081;-76
2023/02/01 05:49:46;;;;;;;4.78;0.85;;;3.60;99.90;;;;;;5022832;28;20452;-76
2023/02/01 05:52:15;;;;;;;8.13;0.73;;;3.60;99.90;;;;;;5025373;28;20025;-76
2023/02/01 05:54:42;;;;;;;6.10;0.85;;;3.60;99.90;;;;;;5027110;28;20041;-74
2023/02/01 05:57:08;;;;;;;1.85;0.43;;;3.60;99.90;;;;;;5017313;28;20113;-75
2023/02/01 05:59:37;;;;;;;2.80;0.60;;;3.50;99.90;;;;;;5027333;28;20116;-76
2023/02/01 06:02:02;;;;;;;2.65;0.80;;;3.50;99.90;;;;;;5028141;28;20034;-78
2023/02/01 06:04:28;;;;;;;4.00;0.60;;;3.50;99.90;;;;;;5010750;28;20120;-75
2023/02/01 06:06:54;;;;;;;1.75;0.52;;;3.40;99.90;;;;;;5010535;28;20064;-76
2023/02/01 06:09:24;;;;;;;2.65;0.70;;;3.50;99.90;;;;;;5031263;28;20026;-76
2023/02/01 06:11:50;;;;;;;2.88;0.82;;;3.40;99.90;;;;;;5011943;28;20039;-75
2023/02/01 06:14:16;;;;;;;4.70;1.75;;;3.40;99.90;;;;;;5030942;28;20501;-73
2023/02/01 06:16:46;;;;;;;6.57;1.10;;;3.40;99.90;;;;;;5029761;28;20081;-76
2023/02/01 06:19:12;;;;;;;4.53;1.00;;;3.50;99.90;;;;;;5009995;28;20076;-73
2023/02/01 06:21:38;;;;;;;6.70;1.27;;;3.50;99.90;;;;;;5008804;28;20029;-75
2023/02/01 06:24:04;;;;;;;5.30;1.10;;;3.50;99.90;;;;;;5009300;28;20112;-75
2023/02/01 06:26:30;;;;;;;5.18;1.10;;;3.60;99.90;;;;;;5025364;28;20029;-75
2023/02/01 06:28:56;;;;;;;11.00;1.55;;;3.60;99.90;;;;;;5020853;28;20075;-75
2023/02/01 06:31:22;;;;;;;10.02;1.83;;;3.60;99.90;;;;;;5026156;28;20033;-75
2023/02/01 06:33:48;;;;;;;6.97;1.13;;;3.60;99.90;;;;;;5023132;28;20128;-76
2023/02/01 06:36:15;;;;;;;8.05;1.58;;;3.70;99.90;;;;;;5004789;28;20509;-75
2023/02/01 06:38:41;;;;;;;10.75;2.13;;;3.70;99.90;;;;;;5006699;28;20084;-76
2023/02/01 06:41:08;;;;;;;12.77;2.33;;;3.70;99.90;;;;;;5006286;28;20033;-74
2023/02/01 06:43:37;;;;;;;25.63;3.03;;;3.70;99.90;;;;;;5023767;28;20048;-75
2023/02/01 06:46:11;;;;;;;16.65;2.15;;;3.80;99.90;;;;;;5028742;28;20112;-76
2023/02/01 06:48:37;;;;;;;15.90;1.90;;;3.80;99.90;;;;;;5025516;28;20029;-73
2023/02/01 06:51:03;;;;;;;10.25;2.30;;;3.80;99.90;;;;;;5010423;28;20029;-73
2023/02/01 06:53:31;;;;;;;23.25;3.00;;;3.80;99.90;;;;;;5029307;28;20080;-73
2023/02/01 06:55:59;;;;;;;25.08;2.80;;;3.90;99.90;;;;;;5030394;28;20062;-73
2023/02/01 06:58:29;;;;;;;17.73;3.38;;;3.80;99.90;;;;;;5028229;28;20048;-74
2023/02/01 07:00:55;;;;;;;23.77;2.92;;;3.80;99.90;;;;;;5023668;28;20745;-74
2023/02/01 07:03:21;;;;;;;14.70;2.97;;;3.90;99.90;;;;;;5024418;28;20088;-74
2023/02/01 07:05:47;;;;;;;21.27;3.00;;;3.90;99.90;;;;;;5019439;28;20066;-72
2023/02/01 07:08:13;;;;;;;22.60;3.17;;;4.00;99.90;;;;;;5006701;28;20540;-74
2023/02/01 07:10:38;;;;;;;18.20;3.58;;;4.00;99.90;;;;;;5027526;28;21560;-74
2023/02/01 07:13:04;;;;;;;15.98;2.80;;;4.00;99.90;;;;;;5024860;28;20136;-76
2023/02/01 07:15:30;;;;;;;23.35;3.13;;;4.00;99.90;;;;;;5023068;28;20382;-74
2023/02/01 07:17:56;;;;;;;40.72;4.97;;;4.00;99.90;;;;;;5023260;28;20108;-74
2023/02/01 07:20:22;;;;;;;21.92;3.72;;;4.10;99.90;;;;;;5023886;28;20484;-74
2023/02/01 07:22:48;;;;;;;35.53;5.07;;;4.10;99.90;;;;;;5024795;28;20036;-74
2023/02/01 07:25:14;;;;;;;27.98;4.30;;;4.20;99.90;;;;;;5027492;28;20029;-72
2023/02/01 07:27:40;;;;;;;26.80;4.55;;;4.10;99.90;;;;;;5021428;28;20413;-73
2023/02/01 07:30:07;;;;;;;40.65;5.25;;;4.20;99.90;;;;;;5020812;28;20044;-73
2023/02/01 07:32:32;;;;;;;41.30;5.20;;;4.30;99.90;;;;;;5026933;28;20631;-73
2023/02/01 07:34:58;;;;;;;36.42;5.50;;;4.50;99.90;;;;;;5027464;28;20080;-74
2023/02/01 07:37:24;;;;;;;52.05;6.38;;;4.50;99.90;;;;;;5025446;28;20032;-74
2023/02/01 07:39:53;;;;;;;40.83;5.03;;;4.50;99.90;;;;;;5028031;28;20036;-75
2023/02/01 07:42:19;;;;;;;38.35;5.80;;;4.50;99.90;;;;;;5041535;28;20033;-74
2023/02/01 07:44:44;;;;;;;58.47;6.60;;;4.50;99.90;;;;;;5026711;28;20076;-74
2023/02/01 07:47:10;;;;;;;37.85;5.75;;;4.50;99.90;;;;;;5026042;28;20039;-73
2023/02/01 07:49:36;;;;;;;48.08;6.38;;;4.60;99.90;;;;;;5026172;28;20084;-74
2023/02/01 07:52:02;;;;;;;40.33;6.72;;;4.60;99.90;;;;;;5026033;28;20037;-74
2023/02/01 07:54:27;;;;;;;44.17;6.07;;;4.60;99.90;;;;;;5026645;28;20029;-74
2023/02/01 07:56:53;;;;;;;36.83;6.05;;;4.60;99.90;;;;;;5042089;28;20096;-74
2023/02/01 07:59:19;;;;;;;45.00;6.55;;;4.70;99.90;;;;;;5028701;28;20025;-74
2023/02/01 08:01:44;;;;;;;38.92;6.53;;;4.70;99.90;;;;;;5003102;28;20063;-74
2023/02/01 08:04:13;;;;;;;56.28;7.28;;;4.70;99.90;;;;;;5025707;28;20022;-74
2023/02/01 08:06:40;;;;;;;52.58;7.22;;;4.70;99.90;;;;;;5026762;28;20545;-74
2023/02/01 08:09:11;;;;;;;41.65;6.82;;;4.70;99.90;;;;;;5040161;28;20039;-74
2023/02/01 08:11:37;;;;;;;44.47;6.50;;;4.70;99.90;;;;;;5008437;28;20071;-74
2023/02/01 08:14:04;;;;;;;42.65;6.13;;;4.70;99.90;;;;;;5002875;28;20399;-74
2023/02/01 08:16:30;;;;;;;38.53;6.43;;;4.80;99.90;;;;;;5023106;28;20432;-74
2023/02/01 08:18:56;;;;;;;38.58;6.07;;;4.80;99.90;;;;;;5027838;28;20033;-74
2023/02/01 08:21:36;;;;;;;45.60;6.82;;;4.80;99.90;;;;;;5021703;28;20492;-74
2023/02/01 08:24:03;;;;;;;42.83;6.00;;;4.80;99.90;;;;;;5020920;28;20029;-73
2023/02/01 08:26:29;;;;;;;46.65;6.78;;;4.80;99.90;;;;;;5009963;28;20096;-75
2023/02/01 08:28:58;;;;;;;46.70;5.78;;;4.90;99.90;;;;;;5027287;28;20112;-74
2023/02/01 08:31:25;;;;;;;45.13;5.65;;;5.00;99.90;;;;;;5015975;28;20091;-74
2023/02/01 08:33:57;;;;;;;25.88;4.78;;;5.10;99.90;;;;;;5035848;28;20494;-72
2023/02/01 08:36:25;;;;;;;39.03;6.10;;;5.10;99.90;;;;;;5029770;28;20532;-72
2023/02/01 08:38:52;;;;;;;40.95;5.85;;;5.10;99.90;;;;;;5030293;28;20072;-72
2023/02/01 08:41:21;;;;;;;29.20;4.25;;;5.10;99.90;;;;;;5028133;28;20032;-73
2023/02/01 08:43:47;;;;;;;22.55;3.92;;;5.10;99.90;;;;;;5033686;28;20571;-73
2023/02/01 08:46:15;;;;;;;22.98;4.82;;;5.10;99.90;;;;;;5027470;28;20025;-73
2023/02/01 08:48:41;;;;;;;26.67;5.53;;;5.00;99.90;;;;;;5038712;28;20029;-75
2023/02/01 08:51:12;;;;;;;23.52;4.28;;;5.00;99.90;;;;;;5036183;28;20110;-75
2023/02/01 08:53:42;;;;;;;31.83;3.85;;;5.00;99.90;;;;;;5031236;28;20027;-74
2023/02/01 08:56:10;;;;;;;19.20;3.53;;;5.00;99.90;;;;;;5030679;28;20029;-74
2023/02/01 08:58:36;;;;;;;29.63;5.20;;;5.00;99.90;;;;;;5031003;28;20031;-74
2023/02/01 09:01:07;;;;;;;31.38;4.85;;;4.90;99.90;;;;;;5030117;28;20421;-74
2023/02/01 09:03:33;;;;;;;39.50;5.18;;;5.00;99.90;;;;;;5029457;28;20030;-74
2023/02/01 09:06:03;;;;;;;36.13;5.75;;;5.00;99.90;;;;;;5028597;28;20029;-74
2023/02/01 09:08:30;;;;;;;37.42;5.25;;;5.10;99.90;;;;;;5012337;28;20060;-74
2023/02/01 09:11:04;;;;;;;34.65;4.10;;;5.20;99.90;;;;;;5028289;28;20036;-74
2023/02/01 09:13:30;;;;;;;32.22;5.97;;;5.20;99.90;;;;;;5026440;28;20495;-74
2023/02/01 09:15:56;;;;;;;39.78;6.88;;;5.20;99.90;;;;;;5028909;28;20041;-74
2023/02/01 09:18:22;;;;;;;46.83;5.00;;;5.20;99.90;;;;;;5029673;28;20013;-74
2023/02/01 09:20:48;;;;;;;32.42;4.97;;;5.20;99.90;;;;;;5030465;28;20123;-74
2023/02/01 09:23:16;;;;;;;29.83;5.05;;;5.20;99.90;;;;;;5029507;28;20026;-74
2023/02/01 09:25:42;;;;;;;27.52;4.40;;;5.30;99.90;;;;;;5030780;28;20033;-74
2023/02/01 09:28:11;;;;;;;32.55;4.32;;;5.30;99.90;;;;;;5032007;28;20028;-74
2023/02/01 09:30:39;;;;;;;30.60;4.90;;;5.30;99.90;;;;;;5030875;28;20546;-73
2023/02/01 09:33:05;;;;;;;35.95;5.13;;;5.30;99.90;;;;;;5032802;28;20553;-74
2023/02/01 09:35:31;;;;;;;39.05;5.72;;;5.40;99.90;;;;;;5030807;28;20029;-72
2023/02/01 09:37:57;;;;;;;33.20;4.82;;;5.40;99.90;;;;;;5032115;28;20405;-73
2023/02/01 09:40:23;;;;;;;31.92;4.30;;;5.50;99.90;;;;;;5033908;28;20025;-73
2023/02/01 09:43:16;;;;;;;36.05;5.20;;;5.50;99.90;;;;;;4999453;28;20061;-74
2023/02/01 09:45:54;;;;;;;28.13;5.55;;;5.60;99.90;;;;;;5027334;28;20413;-74
2023/02/01 09:48:27;;;;;;;32.00;4.97;;;5.60;99.90;;;;;;5031875;28;20048;-74
2023/02/01 09:50:58;;;;;;;34.25;5.45;;;5.70;99.90;;;;;;5012950;28;20038;-73
2023/02/01 09:53:29;;;;;;;23.80;4.03;;;5.70;99.90;;;;;;5031926;28;20030;-73
2023/02/01 09:56:00;;;;;;;33.75;6.80;;;5.70;99.90;;;;;;5030886;28;20088;-74
2023/02/01 09:58:36;;;;;;;23.75;5.18;;;5.80;99.90;;;;;;5016926;28;20038;-74
2023/02/01 10:01:04;;;;;;;29.35;4.55;;;5.80;99.90;;;;;;5021444;28;20167;-74
2023/02/01 10:03:34;;;;;;;37.45;4.55;;;5.80;99.90;;;;;;5024799;28;20025;-74
2023/02/01 10:06:51;;;;;;;33.35;6.00;;;5.90;99.90;;;;;;5026870;28;20030;-73
2023/02/01 10:09:22;;;;;;;39.13;5.25;;;6.00;99.90;;;;;;5014623;28;20037;-73
2023/02/01 10:12:09;;;;;;;28.35;4.38;;;5.90;99.90;;;;;;5032125;28;20029;-74
2023/02/01 10:14:35;;;;;;;26.63;3.97;;;5.90;99.90;;;;;;5033880;28;20347;-73
2023/02/01 10:17:12;;;;;;;28.67;4.60;;;5.90;99.90;;;;;;5032240;28;20034;-74
2023/02/01 10:20:00;;;;;;;25.75;4.32;;;5.90;99.90;;;;;;5049229;28;20037;-74
2023/02/01 10:22:51;;;;;;;25.23;3.97;;;5.90;99.90;;;;;;5032314;28;20117;-74
2023/02/01 10:25:34;;;;;;;26.48;4.38;;;6.80;99.90;;;;;;5032284;28;20061;-74
2023/02/01 10:28:01;;;;;;;36.30;7.40;;;6.50;99.90;;;;;;5028360;28;20878;-74
2023/02/01 10:30:39;;;;;;;24.65;5.93;;;6.40;99.90;;;;;;5032107;28;20404;-73
2023/02/01 10:33:36;;;;;;;25.88;3.88;;;6.20;99.90;;;;;;5030500;28;20029;-74
2023/02/01 10:36:16;;;;;;;29.30;5.20;;;6.00;99.90;;;;;;5028463;28;20197;-73
2023/02/01 10:38:43;;;;;;;26.42;6.00;;;6.10;99.90;;;;;;5029972;28;20132;-73
2023/02/01 10:41:16;;;;;;;31.23;4.25;;;6.00;99.90;;;;;;5031128;28;20041;-74
2023/02/01 10:43:43;;;;;;;32.25;4.47;;;5.90;99.90;;;;;;5028883;28;20025;-72
2023/02/01 10:46:09;;;;;;;32.72;4.30;;;5.90;99.90;;;;;;5030723;28;20432;-73
2023/02/01 10:48:35;;;;;;;45.95;11.70;;;5.90;99.90;;;;;;5029824;28;20075;-74
2023/02/01 10:51:14;;;;;;;39.13;8.95;;;5.90;99.90;;;;;;5045147;28;20749;-75
2023/02/01 10:54:11;;;;;;;37.60;8.18;;;6.10;99.90;;;;;;5029509;28;20080;-74
2023/02/01 10:56:38;;;;;;;24.20;5.78;;;6.00;99.90;;;;;;5032505;28;20148;-73
2023/02/01 10:59:16;;;;;;;37.78;8.07;;;6.10;99.90;;;;;;5030003;28;20037;-73
2023/02/01 11:01:44;;;;;;;33.78;7.65;;;6.30;99.90;;;;;;5030236;28;20021;-74
2023/02/01 11:04:19;;;;;;;46.25;11.23;;;6.10;99.90;;;;;;5031458;28;20069;-73
2023/02/01 11:07:24;;;;;;;28.20;5.18;;;6.20;99.90;;;;;;5029662;28;20036;-74
2023/02/01 11:09:56;;;;;;;32.15;9.13;;;6.20;99.90;;;;;;5023004;28;20030;-73
2023/02/01 11:12:36;;;;;;;36.83;8.07;;;6.20;99.90;;;;;;5027600;28;20041;-74
2023/02/01 11:15:02;;;;;;;33.58;6.15;;;6.20;99.90;;;;;;5030175;28;20125;-73
2023/02/01 11:17:36;;;;;;;25.70;5.15;;;6.40;99.90;;;;;;5029437;28;20112;-73
2023/02/01 11:20:06;;;;;;;24.30;3.65;;;6.30;99.90;;;;;;5012203;28;20040;-73
2023/02/01 11:22:32;;;;;;;28.85;4.65;;;6.20;99.90;;;;;;5029471;28;20049;-74
2023/02/01 11:25:01;;;;;;;27.48;4.07;;;6.20;99.90;;;;;;5029339;28;20029;-73
2023/02/01 11:27:27;;;;;;;28.77;4.35;;;6.10;99.90;;;;;;5044949;28;20030;-74
2023/02/01 11:29:59;;;;;;;26.33;3.47;;;6.10;99.90;;;;;;5028470;28;20517;-74
2023/02/01 11:32:26;;;;;;;24.30;4.43;;;6.20;99.90;;;;;;5028529;28;20025;-74
2023/02/01 11:34:59;;;;;;;30.35;4.22;;;6.10;99.90;;;;;;5029783;28;20045;-73
2023/02/01 11:37:34;;;;;;;29.90;4.53;;;6.00;99.90;;;;;;5030178;28;20030;-73
2023/02/01 11:40:04;;;;;;;24.52;3.63;;;6.10;99.90;;;;;;5030484;28;20116;-74
2023/02/01 11:42:32;;;;;;;25.50;3.58;;;6.10;99.90;;;;;;5028163;28;20029;-74
2023/02/01 11:45:37;;;;;;;22.02;3.85;;;6.10;99.90;;;;;;5012723;28;20540;-74
2023/02/01 11:48:15;;;;;;;23.75;4.15;;;6.10;99.90;;;;;;5028336;28;20038;-74
2023/02/01 11:51:22;;;;;;;28.02;4.60;;;6.00;99.90;;;;;;5026251;28;20036;-74
2023/02/01 11:53:57;;;;;;;24.92;4.00;;;6.00;99.90;;;;;;5031026;28;20060;-74
2023/02/01 11:56:36;;;;;;;19.48;3.40;;;6.00;99.90;;;;;;5032165;28;20048;-74
2023/02/01 11:59:21;;;;;;;22.17;3.30;;;6.00;99.90;;;;;;5032168;28;20022;-74
2023/02/01 12:02:02;;;;;;;15.25;2.58;;;5.80;99.90;;;;;;5029390;28;20033;-73
2023/02/01 12:05:02;;;;;;;13.48;2.20;;;5.70;99.90;;;;;;5029813;28;20029;-73
2023/02/01 12:07:37;;;;;;;15.63;2.15;;;5.60;99.90;;;;;;5030788;28;20054;-74
2023/02/01 12:10:36;;;;;;;15.63;2.80;;;5.60;99.90;;;;;;5028371;28;20030;-74
2023/02/01 12:13:21;;;;;;;17.73;2.40;;;5.60;99.90;;;;;;5028347;28;20499;-73
2023/02/01 12:15:49;;;;;;;23.20;3.10;;;5.50;99.90;;;;;;5028402;28;20029;-73
2023/02/01 12:18:15;;;;;;;15.50;2.50;;;5.50;99.90;;;;;;5028530;28;20550;-73
2023/02/01 12:20:40;;;;;;;21.63;4.05;;;5.50;99.90;;;;;;5027156;28;20025;-73
2023/02/01 12:23:13;;;;;;;14.90;2.95;;;5.50;99.90;;;;;;5029058;28;20056;-73
2023/02/01 12:25:58;;;;;;;14.65;2.88;;;5.50;99.90;;;;;;5044083;28;20029;-74
2023/02/01 12:28:43;;;;;;;12.23;2.55;;;5.40;99.90;;;;;;5019911;28;20033;-74
2023/02/01 12:31:23;;;;;;;15.32;2.50;;;5.40;99.90;;;;;;5028191;28;20761;-74
2023/02/01 12:34:28;;;;;;;10.75;1.98;;;5.30;99.90;;;;;;5020263;28;20025;-74
2023/02/01 12:37:24;;;;;;;19.75;2.72;;;5.30;99.90;;;;;;5004691;28;20056;-73
2023/02/01 12:39:58;;;;;;;8.80;2.10;;;5.20;99.90;;;;;;5027388;28;20021;-73
2023/02/01 12:42:36;;;;;;;6.53;1.63;;;5.20;99.90;;;;;;5027517;28;20036;-73
2023/02/01 12:45:12;;;;;;;7.32;1.45;;;5.10;99.90;;;;;;5027467;28;20037;-74
2023/02/01 12:48:00;;;;;;;6.70;1.30;;;5.10;99.90;;;;;;5027188;28;20040;-73
2023/02/01 12:50:36;;;;;;;7.50;1.67;;;5.00;99.90;;;;;;5028519;28;20072;-74
2023/02/01 12:53:20;;;;;;;6.53;1.20;;;4.90;99.90;;;;;;5029621;28;20032;-73
2023/02/01 12:56:00;;;;;;;5.82;1.00;;;4.80;99.90;;;;;;5028393;28;20029;-75
2023/02/01 12:58:32;;;;;;;7.20;1.48;;;4.70;99.90;;;;;;5028088;28;20026;-74
2023/02/01 13:01:08;;;;;;;6.68;0.93;;;4.70;99.90;;;;;;5030249;28;20044;-74
2023/02/01 13:03:37;;;;;;;3.60;1.00;;;4.70;99.90;;;;;;5024833;28;20075;-74
2023/02/01 13:06:16;;;;;;;4.10;1.08;;;4.70;99.90;;;;;;5028937;28;20026;-73
2023/02/01 13:08:55;;;;;;;4.75;1.00;;;4.70;99.90;;;;;;5042300;28;20473;-74
2023/02/01 13:11:34;;;;;;;2.00;0.80;;;4.70;99.90;;;;;;5027402;28;20030;-74
2023/02/01 13:14:18;;;;;;;2.58;0.70;;;4.70;99.90;;;;;;5026758;28;20045;-74
2023/02/01 13:16:47;;;;;;;2.03;0.70;;;4.70;99.90;;;;;;5028714;28;20029;-75
2023/02/01 13:19:40;;;;;;;5.80;0.73;;;4.70;99.90;;;;;;5027443;28;20036;-74
2023/02/01 13:22:15;;;;;;;2.60;0.60;;;4.70;99.90;;;;;;5028310;28;20046;-74
2023/02/01 13:24:49;;;;;;;16.08;8.18;;;4.80;99.90;;;;;;5022880;28;20025;-74
2023/02/01 13:27:17;;;;;;;2.05;0.50;;;4.80;99.90;;;;;;5027635;28;20037;-73
2023/02/01 13:30:05;;;;;;;1.58;0.40;;;4.80;99.90;;;;;;5028548;28;20084;-74
2023/02/01 13:32:53;;;;;;;1.60;0.60;;;4.80;99.90;;;;;;5024935;28;20063;-74
2023/02/01 13:35:56;;;;;;;3.83;0.60;;;4.80;99.90;;;;;;5026422;28;20654;-74